Racecast

District 7-5A Cross Country Championships

Meadowmeare Park · 3200m · Girls · Varsity Girls · 2010-10-28 · TX

Course difficulty: +1.7%i

Race-day weather: 61°F · wind 36 mph · humidity 36%

View full meet →

Team scores

Place Team Points 12345 67
1 Southlake Carroll (TX) 38 4 7 8 9 10 11 12
2 Coppell (TX) 61 1 5 15 19 21 22 26
3 Justin Northwest (TX) 99 3 13 17 31 35 36 38
4 Keller Central (TX) 104 6 14 24 27 33 42 45
5 Denton Guyer (TX) 115 2 23 25 28 37 39 40
6 Keller (TX) 154 16 29 32 34 43 46 47
7 Saginaw (TX) 186 18 20 48 49 51 52 53
8 Keller Fossil Ridge (TX) 219 30 41 44 50 54

Computed: five scorers, two displacers, incomplete teams removed.

Results

Place Athlete Grade School Time Ratingi Points
1 Kaleigh Ervin 11 Coppell (TX) 1 11:05.2 PR 140.3 1
2 Devin Norton 9 Denton Guyer (TX) 1 11:18.1 PR 137.6 2
3 Kellee McCann 9 Justin Northwest (TX) 1 11:24.9 PR 136.3 3
4 Courtney Kriegshauser 10 Southlake Carroll (TX) 1 11:31.1 PR 135.0 4
5 Kim Kirby 12 Coppell (TX) 2 11:34.1 PR 134.5 5
6 Samantha Ottman 10 Keller Central (TX) 1 11:36.3 PR 134.0 6
7 Morgan Baulier 10 Southlake Carroll (TX) 2 11:38.4 133.6 7
8 Shelby Chapin 10 Southlake Carroll (TX) 3 11:39.3 133.5 8
9 Sarah Roe 11 Southlake Carroll (TX) 4 11:40.2 PR 133.3 9
10 Rachel Harper 11 Southlake Carroll (TX) 5 11:42.4 132.9 10
11 Julia Sunderland 11 Southlake Carroll (TX) 6 11:42.8 PR 132.8 11
12 Felice Johnson 11 Southlake Carroll (TX) 7 11:48.4 PR 131.7 12
13 Jasmine Boutte 12 Justin Northwest (TX) 2 11:52.9 PR 130.9 13
14 Tracie Lee 10 Keller Central (TX) 2 11:54.2 PR 130.7 14
15 Katie Sandfort 10 Coppell (TX) 3 11:55 130.5 15
16 Chelsea Temple 12 Keller (TX) 1 11:58.9 PR 129.8 16
17 Jessica Colbert 9 Justin Northwest (TX) 3 12:03.6 PR 129.0 17
18 Irais Hernandez 11 Saginaw (TX) 1 12:06.5 PR 128.5 18
19 Natalie Sisk 11 Coppell (TX) 4 12:08.6 PR 128.1 19
20 Rhemecka Graham 12 Saginaw (TX) 2 12:12.4 PR 127.4 20
21 Alyssa Shelton 10 Coppell (TX) 5 12:13.7 127.2 21
22 Stephanie Bilka 9 Coppell (TX) 6 12:15.7 PR 126.9 22
23 Kimberly Rosales 11 Denton Guyer (TX) 2 12:17.5 PR 126.5 23
24 Anna Parsons 12 Keller Central (TX) 3 12:21.2 PR 125.9 24
25 Peyton Bucklew 9 Denton Guyer (TX) 3 12:22.2 PR 125.8 25
26 Jenna Hernandez 10 Coppell (TX) 7 12:28.4 124.7 26
27 Shannon Lee 12 Keller Central (TX) 4 12:35.5 PR 123.5 27
28 Samantha Leyba 11 Denton Guyer (TX) 4 12:41.7 PR 122.5 28
29 Tajanni Cuevas 11 Keller (TX) 2 12:43.6 PR 122.2 29
30 Madison Ebel 9 Keller Fossil Ridge (TX) 1 12:44.1 PR 122.1 30
31 Cooper Mitchell 11 Justin Northwest (TX) 4 12:44.9 PR 122.0 31
32 Caroline Hughes 11 Keller (TX) 3 12:45.3 PR 122.0 32
33 McKenzie Rogers 12 Keller Central (TX) 5 12:45.6 PR 121.9 33
34 Heather Bair 12 Keller (TX) 4 12:46.3 PR 121.8 34
35 Samantha Shows 11 Justin Northwest (TX) 5 12:48.2 PR 121.5 35
36 Mariah Indihar 12 Justin Northwest (TX) 6 13:01.7 PR 119.4 36
37 Haley Neu 9 Denton Guyer (TX) 5 13:05.9 PR 118.8 37
38 Victoria Rasmussen 12 Justin Northwest (TX) 7 13:08.6 118.3 38
39 Daisy Vidal 11 Denton Guyer (TX) 6 13:08.9 PR 118.3 39
40 Danielle Stautner 11 Denton Guyer (TX) 7 13:10.2 SR 118.1 40
41 Ingrid Matos 11 Keller Fossil Ridge (TX) 2 13:17.5 PR 117.0 41
42 Cassidy Woodside 10 Keller Central (TX) 6 13:18.8 PR 116.8 42
43 Caitlin Walker 12 Keller (TX) 5 13:29.7 115.3 43
44 Vanessa Pacheco 9 Keller Fossil Ridge (TX) 3 13:30 115.2 44
45 Keelyn Shea 10 Keller Central (TX) 7 13:33.8 PR 114.7 45
46 Rebekah Engelland 10 Keller (TX) 6 13:40.7 PR 113.7 46
47 Carley Schoen 11 Keller (TX) 7 13:45.8 PR 113.0 47
48 Megan Whipkey 12 Saginaw (TX) 3 13:55.6 PR 111.7 48
49 Kyja Winchester 12 Saginaw (TX) 4 14:02.7 PR 110.8 49
50 Whitney Hayley 11 Keller Fossil Ridge (TX) 4 14:03 PR 110.7 50
51 Zeneta Mathieu 11 Saginaw (TX) 5 14:25.2 PR 107.9 51
52 Emily Mullins 12 Saginaw (TX) 6 14:34.7 PR 106.7 52
53 Evelyn Gaucin 12 Saginaw (TX) 7 15:08.6 PR 102.7 53
54 Anna Hadley 9 Keller Fossil Ridge (TX) 5 15:45.8 PR 98.7 54
Something wrong on this page? Report it →